createdAt,value
2018-07-13T00:01:50.277Z,100858.20
2018-07-13T00:04:25.682Z,100856.50
2018-07-13T00:06:53.789Z,100859.08
2018-07-13T00:09:21.897Z,100856.69
2018-07-13T00:11:50.072Z,100858.97
2018-07-13T00:14:23.202Z,100861.34
2018-07-13T00:16:52.463Z,100862.23
2018-07-13T00:19:21.135Z,100862.11
2018-07-13T00:21:49.289Z,100861.80
2018-07-13T00:24:17.769Z,100859.61
2018-07-13T00:26:45.835Z,100856.86
2018-07-13T00:29:13.905Z,100859.60
2018-07-13T00:31:42.774Z,100862.28
2018-07-13T00:34:10.848Z,100868.39
2018-07-13T00:36:38.921Z,100868.88
2018-07-13T00:39:08.191Z,100864.91
2018-07-13T00:41:36.260Z,100869.54
2018-07-13T00:44:04.887Z,100866.94
2018-07-13T00:46:32.975Z,100872.56
2018-07-13T00:49:01.030Z,100880.45
2018-07-13T00:51:29.087Z,100882.64
2018-07-13T00:53:57.175Z,100879.21
2018-07-13T00:56:25.250Z,100884.74
2018-07-13T00:58:53.314Z,100881.83
2018-07-13T01:01:21.375Z,100890.63
2018-07-13T01:03:49.438Z,100891.45
2018-07-13T01:06:17.514Z,100891.98
2018-07-13T01:08:45.607Z,100893.48
2018-07-13T01:11:13.682Z,100898.61
2018-07-13T01:13:41.756Z,100898.81
2018-07-13T01:16:09.828Z,100898.37
2018-07-13T01:18:37.886Z,100893.41
2018-07-13T01:21:06.044Z,100899.10
2018-07-13T01:23:34.111Z,100895.95
2018-07-13T01:26:02.184Z,100899.13
2018-07-13T01:28:30.267Z,100903.98
2018-07-13T01:30:58.369Z,100900.64
2018-07-13T01:33:26.432Z,100901.87
2018-07-13T01:35:54.520Z,100900.45
2018-07-13T01:38:22.598Z,100903.67
2018-07-13T01:40:50.688Z,100906.82
2018-07-13T01:43:18.759Z,100904.03
2018-07-13T01:45:46.847Z,100897.81
2018-07-13T01:48:14.914Z,100899.85
2018-07-13T01:50:42.994Z,100901.03
2018-07-13T01:53:11.101Z,100902.94
2018-07-13T01:55:39.258Z,100899.38
2018-07-13T01:58:07.286Z,100901.57
2018-07-13T02:00:35.344Z,100901.75
2018-07-13T02:03:03.426Z,100907.33
2018-07-13T02:05:31.528Z,100903.98
2018-07-13T02:07:59.652Z,100906.03
2018-07-13T02:10:27.715Z,100905.02
2018-07-13T02:12:55.784Z,100907.58
2018-07-13T02:15:23.864Z,100903.02
2018-07-13T02:17:51.993Z,100897.52
2018-07-13T02:20:20.049Z,100907.61
2018-07-13T02:22:48.126Z,100907.39
2018-07-13T02:25:16.183Z,100914.41
2018-07-13T02:27:44.251Z,100914.56
2018-07-13T02:30:12.319Z,100915.11
2018-07-13T02:32:40.448Z,100920.14
2018-07-13T02:35:08.527Z,100922.38
2018-07-13T02:37:36.597Z,100920.74
2018-07-13T02:40:04.889Z,100926.38
2018-07-13T02:42:32.964Z,100931.03
2018-07-13T02:45:01.017Z,100929.13
2018-07-13T02:47:29.076Z,100930.28
2018-07-13T02:49:57.152Z,100927.88
2018-07-13T02:52:25.227Z,100924.80
2018-07-13T02:54:53.323Z,100927.73
2018-07-13T02:57:21.407Z,100920.23
2018-07-13T02:59:49.459Z,100922.80
2018-07-13T03:02:17.523Z,100922.64
2018-07-13T03:04:45.584Z,100924.99
2018-07-13T03:07:13.735Z,100930.70
2018-07-13T03:09:41.806Z,100933.59
2018-07-13T03:12:09.892Z,100937.51
2018-07-13T03:14:38.150Z,100943.97
2018-07-13T03:17:06.252Z,100944.41
2018-07-13T03:19:34.316Z,100949.02
2018-07-13T03:22:02.466Z,100952.89
2018-07-13T03:24:30.521Z,100953.95
2018-07-13T03:26:58.618Z,100960.75
2018-07-13T03:29:26.680Z,100953.39
2018-07-13T03:31:54.758Z,100965.30
2018-07-13T03:34:22.830Z,100966.67
2018-07-13T03:36:50.928Z,100966.23
2018-07-13T03:39:18.995Z,100969.44
2018-07-13T03:41:47.079Z,100970.56
2018-07-13T03:44:15.159Z,100969.95
2018-07-13T03:46:43.231Z,100966.62
2018-07-13T03:49:11.290Z,100964.69
2018-07-13T03:51:39.407Z,100963.44
2018-07-13T03:54:07.467Z,100968.45
2018-07-13T03:56:35.559Z,100959.52
2018-07-13T03:59:03.715Z,100964.14
2018-07-13T04:01:31.783Z,100968.70
2018-07-13T04:03:59.880Z,100967.97
2018-07-13T04:06:27.998Z,100960.38
2018-07-13T04:08:56.017Z,100956.72
2018-07-13T04:11:24.084Z,100957.56
2018-07-13T04:13:52.192Z,100959.84
2018-07-13T04:16:20.843Z,100956.30
2018-07-13T04:18:48.941Z,100959.97
2018-07-13T04:21:17.009Z,100956.67
2018-07-13T04:23:45.071Z,100958.58
2018-07-13T04:26:13.139Z,100962.50
2018-07-13T04:28:41.317Z,100955.73
2018-07-13T04:31:09.268Z,100957.02
2018-07-13T04:33:37.463Z,100964.47
2018-07-13T04:36:05.499Z,100964.00
2018-07-13T04:38:33.571Z,100960.42
2018-07-13T04:41:01.743Z,100967.98
2018-07-13T04:43:29.763Z,100961.78
2018-07-13T04:45:57.848Z,100964.05
2018-07-13T04:48:25.928Z,100957.16
2018-07-13T04:50:54.027Z,100967.69
2018-07-13T04:53:22.115Z,100973.00
2018-07-13T04:55:50.190Z,100974.64
2018-07-13T04:58:18.275Z,100975.47
2018-07-13T05:00:46.337Z,100978.16
2018-07-13T05:03:14.404Z,100980.34
2018-07-13T05:05:42.469Z,100977.78
2018-07-13T05:08:10.541Z,100980.66
2018-07-13T05:10:38.613Z,100982.55
2018-07-13T05:13:06.727Z,100978.45
2018-07-13T05:15:34.793Z,100985.37
2018-07-13T05:18:02.866Z,100980.56
2018-07-13T05:20:30.938Z,100977.23
2018-07-13T05:22:59.027Z,100981.89
2018-07-13T05:25:27.147Z,100975.58
2018-07-13T05:27:55.399Z,100971.41
2018-07-13T05:30:23.452Z,100972.52
2018-07-13T05:32:51.622Z,100973.63
2018-07-13T05:35:19.792Z,100972.13
2018-07-13T05:37:47.980Z,100972.84
2018-07-13T05:40:16.122Z,100977.66
2018-07-13T05:42:44.216Z,100975.91
2018-07-13T05:45:12.355Z,100974.12
2018-07-13T05:47:40.468Z,100980.01
2018-07-13T05:50:08.625Z,100978.20
2018-07-13T05:52:36.698Z,100977.78
2018-07-13T05:55:04.800Z,100985.49
2018-07-13T05:57:32.883Z,100983.96
2018-07-13T06:00:00.990Z,100980.89
2018-07-13T06:02:29.054Z,100981.89
2018-07-13T06:04:57.135Z,100994.23
2018-07-13T06:07:25.763Z,100990.88
2018-07-13T06:09:53.864Z,100993.55
2018-07-13T06:12:21.982Z,100998.34
2018-07-13T06:14:50.147Z,100997.96
2018-07-13T06:17:18.238Z,101002.43
2018-07-13T06:19:46.290Z,100996.17
2018-07-13T06:22:14.359Z,101002.84
2018-07-13T06:24:42.462Z,100998.12
2018-07-13T06:27:10.572Z,100992.89
2018-07-13T06:29:38.635Z,100997.42
2018-07-13T06:32:06.744Z,100998.11
2018-07-13T06:34:34.900Z,100992.87
2018-07-13T06:37:03.013Z,100994.39
2018-07-13T06:39:31.143Z,100989.27
2018-07-13T06:41:59.207Z,100991.94
2018-07-13T06:44:27.350Z,100989.09
2018-07-13T06:46:55.478Z,100994.45
2018-07-13T06:49:23.551Z,100996.28
2018-07-13T06:51:51.691Z,100982.47
2018-07-13T06:54:19.807Z,100987.89
2018-07-13T06:56:47.932Z,100989.55
2018-07-13T06:59:17.326Z,100998.56
2018-07-13T07:01:45.779Z,100996.06
2018-07-13T07:04:35.930Z,100984.22
2018-07-13T07:07:17.805Z,100996.80
2018-07-13T07:09:47.531Z,100991.68
2018-07-13T07:12:52.826Z,100997.73
2018-07-13T07:15:21.728Z,100996.61
2018-07-13T07:17:49.870Z,100994.08
2018-07-13T07:20:17.890Z,100999.69
2018-07-13T07:22:46.646Z,100998.09
2018-07-13T07:25:15.334Z,100989.95
2018-07-13T07:27:43.914Z,100999.46
2018-07-13T07:30:12.632Z,100997.83
2018-07-13T07:32:40.683Z,101004.75
2018-07-13T07:35:09.393Z,100998.92
2018-07-13T07:37:37.772Z,101001.66
2018-07-13T07:40:05.943Z,100997.33
2018-07-13T07:42:34.183Z,100999.52
2018-07-13T07:45:02.317Z,100991.72
2018-07-13T07:47:30.385Z,100996.83
2018-07-13T07:49:58.591Z,100998.02
2018-07-13T07:52:26.706Z,100986.63
2018-07-13T07:54:55.042Z,100986.80
2018-07-13T07:57:23.774Z,100989.52
2018-07-13T07:59:52.028Z,100981.09
2018-07-13T08:02:20.909Z,100988.30
2018-07-13T08:04:49.152Z,100985.86
2018-07-13T08:07:17.567Z,100984.31
2018-07-13T08:09:45.466Z,100980.21
2018-07-13T08:12:13.531Z,100990.16
2018-07-13T08:14:41.690Z,100985.58
2018-07-13T08:17:09.754Z,100986.12
2018-07-13T08:19:38.037Z,100983.64
2018-07-13T08:22:14.607Z,100984.47
2018-07-13T08:24:43.927Z,100984.73
2018-07-13T08:27:15.699Z,100982.30
2018-07-13T08:29:43.786Z,100979.36
2018-07-13T08:32:11.879Z,100985.10
2018-07-13T08:34:39.955Z,100979.94
2018-07-13T08:37:08.171Z,100979.48
2018-07-13T08:39:36.387Z,100966.93
2018-07-13T08:42:04.611Z,100977.06
2018-07-13T08:44:32.978Z,100982.01
2018-07-13T08:47:01.193Z,100975.98
2018-07-13T08:49:29.353Z,100975.70
2018-07-13T08:51:57.553Z,100983.41
2018-07-13T08:54:26.407Z,100985.58
2018-07-13T08:56:55.114Z,100973.53
2018-07-13T08:59:24.513Z,100972.45
2018-07-13T09:01:52.706Z,100971.67
2018-07-13T09:04:20.958Z,100971.14
2018-07-13T09:06:49.140Z,100967.59
2018-07-13T09:09:18.353Z,100974.16
2018-07-13T09:11:47.174Z,100967.10
2018-07-13T09:14:15.371Z,100962.16
2018-07-13T09:16:43.565Z,100970.38
2018-07-13T09:19:11.743Z,100971.75
2018-07-13T09:21:39.928Z,100967.36
2018-07-13T09:24:08.131Z,100962.98
2018-07-13T09:26:36.492Z,100960.25
2018-07-13T09:29:04.664Z,100966.25
2018-07-13T09:31:32.797Z,100969.24
2018-07-13T09:34:00.942Z,100970.64
2018-07-13T09:36:29.181Z,100969.78
2018-07-13T09:38:57.368Z,100958.84
2018-07-13T09:41:25.488Z,100961.30
2018-07-13T09:43:53.562Z,100965.95
2018-07-13T09:46:21.621Z,100962.13
2018-07-13T09:48:49.703Z,100964.33
2018-07-13T09:51:18.527Z,100960.19
2018-07-13T09:53:46.697Z,100961.27
2018-07-13T09:56:17.184Z,100957.41
2018-07-13T09:58:45.327Z,100962.81
2018-07-13T10:01:20.395Z,100959.73
2018-07-13T10:03:48.503Z,100956.94
2018-07-13T10:06:16.589Z,100957.25
2018-07-13T10:08:44.694Z,100955.59
2018-07-13T10:11:12.745Z,100954.93
2018-07-13T10:13:40.967Z,100964.47
2018-07-13T10:16:09.061Z,100960.05
2018-07-13T10:18:38.702Z,100965.98
2018-07-13T10:21:07.963Z,100966.83
2018-07-13T10:23:36.152Z,100962.15
2018-07-13T10:26:08.247Z,100955.55
2018-07-13T10:28:38.686Z,100952.25
2018-07-13T10:31:07.106Z,100943.10
2018-07-13T10:33:36.172Z,100951.41
2018-07-13T10:36:04.891Z,100943.28
2018-07-13T10:38:33.063Z,100942.38
2018-07-13T10:41:01.902Z,100946.45
2018-07-13T10:43:30.142Z,100939.66
2018-07-13T10:45:58.356Z,100939.88
2018-07-13T10:48:26.543Z,100937.14
2018-07-13T10:50:54.703Z,100935.84
2018-07-13T10:53:22.898Z,100931.01
2018-07-13T10:55:51.020Z,100928.84
2018-07-13T10:58:19.224Z,100929.08
2018-07-13T11:00:47.427Z,100924.73
2018-07-13T11:03:15.683Z,100932.86
2018-07-13T11:05:43.889Z,100923.98
2018-07-13T11:08:12.120Z,100921.13
2018-07-13T11:10:40.328Z,100922.94
2018-07-13T11:13:08.568Z,100917.78
2018-07-13T11:15:36.793Z,100913.47
2018-07-13T11:18:05.145Z,100906.52
2018-07-13T11:20:33.340Z,100909.64
2018-07-13T11:23:01.524Z,100900.84
2018-07-13T11:25:29.881Z,100901.98
2018-07-13T11:27:58.113Z,100907.13
2018-07-13T11:30:26.292Z,100898.66
2018-07-13T11:32:54.524Z,100905.55
2018-07-13T11:35:22.778Z,100904.63
2018-07-13T11:37:51.005Z,100896.73
2018-07-13T11:40:19.198Z,100890.99
2018-07-13T11:42:47.401Z,100893.11
2018-07-13T11:45:15.602Z,100895.91
2018-07-13T11:47:45.016Z,100894.59
2018-07-13T11:50:13.216Z,100893.95
2018-07-13T11:52:41.441Z,100890.78
2018-07-13T11:55:09.672Z,100883.70
2018-07-13T11:57:38.978Z,100880.51
2018-07-13T12:00:07.888Z,100887.31
2018-07-13T12:02:36.215Z,100878.88
2018-07-13T12:05:04.444Z,100878.91
2018-07-13T12:07:32.696Z,100873.11
2018-07-13T12:10:00.892Z,100866.27
2018-07-13T12:12:29.138Z,100861.27
2018-07-13T12:14:57.319Z,100864.77
2018-07-13T12:17:25.572Z,100858.16
2018-07-13T12:19:53.738Z,100859.28
2018-07-13T12:22:22.012Z,100857.05
2018-07-13T12:24:50.192Z,100846.67
2018-07-13T12:27:18.449Z,100846.87
2018-07-13T12:29:46.625Z,100848.34
2018-07-13T12:32:14.837Z,100847.70
2018-07-13T12:34:43.067Z,100853.05
2018-07-13T12:37:11.261Z,100849.26
2018-07-13T12:39:39.736Z,100847.73
2018-07-13T12:42:07.909Z,100846.12
2018-07-13T12:44:36.112Z,100849.02
2018-07-13T12:47:04.330Z,100845.64
2018-07-13T12:49:32.544Z,100846.87
2018-07-13T12:52:00.812Z,100844.90
2018-07-13T12:54:29.018Z,100844.31
2018-07-13T12:56:57.234Z,100841.05
2018-07-13T12:59:25.453Z,100845.41
2018-07-13T13:01:53.660Z,100848.78
2018-07-13T13:04:21.871Z,100847.68
2018-07-13T13:06:50.048Z,100847.37
2018-07-13T13:09:18.328Z,100843.61
2018-07-13T13:11:46.503Z,100849.16
2018-07-13T13:14:14.685Z,100844.06
2018-07-13T13:16:42.871Z,100843.70
2018-07-13T13:19:11.071Z,100834.69
2018-07-13T13:21:39.548Z,100840.91
2018-07-13T13:24:07.744Z,100838.98
2018-07-13T13:26:35.956Z,100835.80
2018-07-13T13:29:04.388Z,100835.80
2018-07-13T13:31:32.605Z,100833.51
2018-07-13T13:34:00.804Z,100833.09
2018-07-13T13:36:28.976Z,100831.66
2018-07-13T13:38:57.206Z,100826.61
2018-07-13T13:41:25.399Z,100833.59
2018-07-13T13:43:53.588Z,100824.55
2018-07-13T13:46:21.804Z,100828.47
2018-07-13T13:48:49.960Z,100825.98
2018-07-13T13:51:18.156Z,100819.69
2018-07-13T13:53:46.363Z,100827.27
2018-07-13T13:56:14.537Z,100828.42
2018-07-13T13:58:42.736Z,100823.00
2018-07-13T14:01:10.928Z,100830.31
2018-07-13T14:03:39.131Z,100823.82
2018-07-13T14:06:07.312Z,100822.72
2018-07-13T14:08:35.502Z,100817.02
2018-07-13T14:11:03.743Z,100818.25
2018-07-13T14:13:31.980Z,100818.71
2018-07-13T14:16:00.232Z,100825.07
2018-07-13T14:18:28.448Z,100823.86
2018-07-13T14:20:56.664Z,100818.16
2018-07-13T14:23:24.897Z,100820.91
2018-07-13T14:25:53.061Z,100824.49
2018-07-13T14:28:21.328Z,100823.11
2018-07-13T14:30:49.576Z,100825.63
2018-07-13T14:33:17.798Z,100828.66
2018-07-13T14:35:46.032Z,100836.87
2018-07-13T14:38:14.225Z,100836.51
2018-07-13T14:40:42.509Z,100835.01
2018-07-13T14:43:10.827Z,100837.91
2018-07-13T14:45:39.044Z,100838.42
2018-07-13T14:48:07.293Z,100837.75
2018-07-13T14:50:35.482Z,100842.59
2018-07-13T14:53:06.937Z,100837.61
2018-07-13T14:55:35.924Z,100836.45
2018-07-13T14:58:04.123Z,100837.07
2018-07-13T15:00:33.351Z,100830.30
2018-07-13T15:03:03.560Z,100835.48
2018-07-13T15:05:31.834Z,100841.88
2018-07-13T15:08:00.027Z,100843.02
2018-07-13T15:10:28.216Z,100837.05
2018-07-13T15:12:56.443Z,100846.49
2018-07-13T15:15:24.638Z,100847.56
2018-07-13T15:17:52.772Z,100852.02
2018-07-13T15:20:20.866Z,100844.59
2018-07-13T15:22:48.918Z,100842.67
2018-07-13T15:25:16.975Z,100842.92
2018-07-13T15:27:45.065Z,100847.86
2018-07-13T15:30:13.145Z,100855.42
2018-07-13T15:32:41.227Z,100847.19
2018-07-13T15:35:09.438Z,100842.61
2018-07-13T15:37:37.504Z,100843.73
2018-07-13T15:40:05.599Z,100844.34
2018-07-13T15:42:33.900Z,100844.83
2018-07-13T15:45:02.408Z,100837.68
2018-07-13T15:47:30.895Z,100838.45
2018-07-13T15:49:59.152Z,100833.95
2018-07-13T15:52:27.337Z,100830.36
2018-07-13T15:54:55.711Z,100827.26
2018-07-13T15:57:29.113Z,100827.73
2018-07-13T16:00:04.934Z,100830.53
2018-07-13T16:02:40.584Z,100827.82
2018-07-13T16:05:09.095Z,100823.45
2018-07-13T16:07:49.126Z,100819.03
2018-07-13T16:10:26.053Z,100813.81
2018-07-13T16:13:00.046Z,100818.45
2018-07-13T16:15:42.577Z,100803.98
2018-07-13T16:18:50.129Z,100805.80
2018-07-13T16:21:50.945Z,100807.85
2018-07-13T16:24:20.785Z,100804.09
2018-07-13T16:26:52.376Z,100806.86
2018-07-13T16:29:22.132Z,100803.84
2018-07-13T16:31:59.924Z,100800.19
2018-07-13T16:34:29.475Z,100797.22
2018-07-13T16:37:09.438Z,100800.64
2018-07-13T16:40:05.918Z,100799.72
2018-07-13T16:42:42.032Z,100795.70
2018-07-13T16:45:18.722Z,100795.22
2018-07-13T16:48:11.451Z,100792.17
2018-07-13T16:51:08.480Z,100796.05
2018-07-13T16:53:46.751Z,100797.44
2018-07-13T17:02:32.036Z,100787.00
2018-07-13T17:05:22.288Z,100788.45
2018-07-13T17:13:15.065Z,100793.72
2018-07-13T17:16:10.813Z,100790.89
2018-07-13T17:18:45.264Z,100784.98
2018-07-13T17:24:10.573Z,100782.47
2018-07-13T17:29:45.582Z,100779.06
2018-07-13T17:32:18.770Z,100775.09
2018-07-13T17:34:48.138Z,100776.76
2018-07-13T17:37:20.789Z,100768.61
2018-07-13T17:40:00.567Z,100774.50
2018-07-13T17:42:33.242Z,100771.58
2018-07-13T17:45:04.425Z,100769.39
2018-07-13T17:47:34.840Z,100770.02
2018-07-13T17:50:11.152Z,100769.56
2018-07-13T17:52:42.779Z,100772.59
2018-07-13T17:55:12.773Z,100764.41
2018-07-13T17:57:41.276Z,100768.81
2018-07-13T18:00:09.532Z,100768.44
2018-07-13T18:02:38.141Z,100768.29
2018-07-13T18:05:06.625Z,100772.17
2018-07-13T18:07:35.176Z,100779.77
2018-07-13T18:10:07.364Z,100774.81
2018-07-13T18:12:35.628Z,100782.42
2018-07-13T18:15:04.798Z,100782.12
2018-07-13T18:17:32.992Z,100772.98
2018-07-13T18:20:01.697Z,100782.68
2018-07-13T18:22:29.929Z,100786.09
2018-07-13T18:24:58.229Z,100781.47
2018-07-13T18:27:26.419Z,100785.58
2018-07-13T18:29:54.705Z,100787.78
2018-07-13T18:32:22.983Z,100784.51
2018-07-13T18:34:51.136Z,100782.35
2018-07-13T18:37:19.329Z,100776.13
2018-07-13T18:39:47.560Z,100781.06
2018-07-13T18:42:15.756Z,100784.97
2018-07-13T18:44:44.083Z,100788.91
2018-07-13T18:47:12.512Z,100790.10
2018-07-13T18:49:40.786Z,100790.38
2018-07-13T18:52:09.463Z,100792.58
2018-07-13T18:54:37.736Z,100799.52
2018-07-13T18:57:06.310Z,100796.24
2018-07-13T18:59:35.640Z,100797.11
2018-07-13T19:02:04.105Z,100794.16
2018-07-13T19:04:32.369Z,100796.63
2018-07-13T19:07:04.322Z,100797.48
2018-07-13T19:09:35.810Z,100798.84
2018-07-13T19:12:06.848Z,100800.22
2018-07-13T19:14:36.330Z,100799.41
2018-07-13T19:17:11.929Z,100805.97
2018-07-13T19:19:42.940Z,100801.00
2018-07-13T19:22:13.432Z,100799.87
2018-07-13T19:24:43.380Z,100797.95
2018-07-13T19:30:18.007Z,100807.69
2018-07-13T19:32:46.348Z,100811.16
2018-07-13T19:35:16.297Z,100807.06
2018-07-13T19:37:46.673Z,100820.08
2018-07-13T19:40:15.035Z,100818.92
2018-07-13T19:42:45.616Z,100820.48
2018-07-13T19:45:14.021Z,100825.61
2018-07-13T19:47:44.466Z,100825.55
2018-07-13T19:50:14.992Z,100830.10
2018-07-13T19:52:45.393Z,100836.06
2018-07-13T19:55:13.712Z,100830.00
2018-07-13T19:57:43.086Z,100836.30
2018-07-13T20:00:11.525Z,100847.95
2018-07-13T20:02:42.219Z,100849.35
2018-07-13T20:05:12.636Z,100845.33
2018-07-13T20:07:42.223Z,100844.20
2018-07-13T20:10:12.686Z,100851.81
2018-07-13T20:12:46.323Z,100850.72
2018-07-13T20:15:14.644Z,100861.41
2018-07-13T20:17:44.610Z,100858.09
2018-07-13T20:20:13.724Z,100867.97
2018-07-13T20:22:42.039Z,100867.71
2018-07-13T20:25:10.400Z,100865.62
2018-07-13T20:27:38.795Z,100866.34
2018-07-13T20:30:07.776Z,100867.03
2018-07-13T20:32:36.058Z,100865.86
2018-07-13T20:35:04.434Z,100872.98
2018-07-13T20:37:32.734Z,100867.63
2018-07-13T20:40:01.073Z,100873.41
2018-07-13T20:42:29.657Z,100873.11
2018-07-13T20:44:58.018Z,100879.09
2018-07-13T20:47:26.313Z,100873.81
2018-07-13T20:49:54.696Z,100881.62
2018-07-13T20:52:23.170Z,100876.53
2018-07-13T20:54:55.563Z,100878.63
2018-07-13T20:57:30.592Z,100875.81
2018-07-13T20:59:58.963Z,100888.84
2018-07-13T21:02:27.266Z,100890.19
2018-07-13T21:04:55.572Z,100883.03
2018-07-13T21:07:23.852Z,100885.39
2018-07-13T21:09:52.185Z,100892.66
2018-07-13T21:12:20.469Z,100886.54
2018-07-13T21:14:48.792Z,100898.30
2018-07-13T21:17:17.650Z,100904.24
2018-07-13T21:19:46.093Z,100898.70
2018-07-13T21:22:14.318Z,100901.50
2018-07-13T21:24:42.656Z,100902.13
2018-07-13T21:27:11.039Z,100904.42
2018-07-13T21:29:39.356Z,100914.08
2018-07-13T21:32:07.687Z,100922.00
2018-07-13T21:34:35.983Z,100918.59
2018-07-13T21:37:04.314Z,100920.14
2018-07-13T21:39:32.635Z,100923.25
2018-07-13T21:42:00.993Z,100921.69
2018-07-13T21:44:29.329Z,100921.83
2018-07-13T21:46:57.667Z,100913.54
2018-07-13T21:49:25.986Z,100916.56
2018-07-13T21:51:54.340Z,100921.62
2018-07-13T21:54:22.691Z,100915.35
2018-07-13T21:56:51.336Z,100919.36
2018-07-13T21:59:20.407Z,100921.56
2018-07-13T22:01:48.816Z,100920.98
2018-07-13T22:04:17.102Z,100919.19
2018-07-13T22:06:45.395Z,100921.41
2018-07-13T22:09:13.681Z,100922.17
2018-07-13T22:11:41.979Z,100924.70
2018-07-13T22:14:10.310Z,100922.39
2018-07-13T22:16:38.650Z,100929.72
2018-07-13T22:19:06.984Z,100924.45
2018-07-13T22:21:35.319Z,100922.36
2018-07-13T22:24:03.630Z,100921.00
2018-07-13T22:26:31.984Z,100922.17
2018-07-13T22:29:00.271Z,100928.48
2018-07-13T22:31:28.672Z,100931.76
2018-07-13T22:33:56.957Z,100923.56
2018-07-13T22:36:25.442Z,100927.77
2018-07-13T22:38:53.764Z,100933.83
2018-07-13T22:41:22.050Z,100926.42
2018-07-13T22:43:50.351Z,100926.59
2018-07-13T22:46:18.865Z,100924.75
2018-07-13T22:48:48.039Z,100923.60
2018-07-13T22:51:16.373Z,100925.28
2018-07-13T22:53:44.674Z,100920.47
2018-07-13T22:56:13.051Z,100920.69
2018-07-13T22:58:41.309Z,100918.95
2018-07-13T23:01:09.712Z,100925.74
2018-07-13T23:03:37.994Z,100924.97
2018-07-13T23:06:06.471Z,100932.69
2018-07-13T23:08:34.776Z,100933.25
2018-07-13T23:11:03.037Z,100928.09
2018-07-13T23:13:31.318Z,100925.83
2018-07-13T23:15:59.648Z,100922.77
2018-07-13T23:18:28.585Z,100923.25
2018-07-13T23:20:56.875Z,100930.15
2018-07-13T23:23:25.374Z,100927.38
2018-07-13T23:25:53.692Z,100921.25
2018-07-13T23:28:22.001Z,100923.67
2018-07-13T23:30:50.281Z,100921.72
2018-07-13T23:33:18.589Z,100919.97
2018-07-13T23:35:47.006Z,100916.30
2018-07-13T23:38:15.414Z,100917.89
2018-07-13T23:40:43.806Z,100915.83
2018-07-13T23:43:12.174Z,100915.05
2018-07-13T23:45:40.472Z,100910.71
2018-07-13T23:48:08.788Z,100921.27
2018-07-13T23:50:37.090Z,100916.80
2018-07-13T23:53:05.359Z,100914.44
2018-07-13T23:55:34.017Z,100913.26
2018-07-13T23:58:02.307Z,100918.72
